createdAt,value
2023-02-14T00:00:39.270Z,23.70
2023-02-14T00:03:08.601Z,22.77
2023-02-14T00:05:38.262Z,23.40
2023-02-14T00:08:04.849Z,21.60
2023-02-14T00:10:35.188Z,21.80
2023-02-14T00:13:02.068Z,21.35
2023-02-14T00:15:35.964Z,22.00
2023-02-14T00:18:04.581Z,23.23
2023-02-14T00:20:31.148Z,20.85
2023-02-14T00:22:57.846Z,23.08
2023-02-14T00:25:24.414Z,22.48
2023-02-14T00:27:51.367Z,21.95
2023-02-14T00:30:20.705Z,23.17
2023-02-14T00:32:51.787Z,21.80
2023-02-14T00:35:23.686Z,21.35
2023-02-14T00:40:23.566Z,21.17
2023-02-14T00:42:51.936Z,21.33
2023-02-14T00:45:20.500Z,21.88
2023-02-14T00:47:49.572Z,21.83
2023-02-14T00:50:19.818Z,21.95
2023-02-14T00:52:46.433Z,22.45
2023-02-14T00:55:13.080Z,20.85
2023-02-14T00:57:45.599Z,21.58
2023-02-14T01:00:13.777Z,21.92
2023-02-14T01:02:43.499Z,21.17
2023-02-14T01:05:10.262Z,21.98
2023-02-14T01:07:36.994Z,21.10
2023-02-14T01:10:05.010Z,22.85
2023-02-14T01:15:12.077Z,22.20
2023-02-14T01:17:38.738Z,22.30
2023-02-14T01:20:06.335Z,22.58
2023-02-14T01:22:42.533Z,21.75
2023-02-14T01:25:09.257Z,19.90
2023-02-14T01:27:35.980Z,20.15
2023-02-14T01:30:06.702Z,21.55
2023-02-14T01:32:34.108Z,20.85
2023-02-14T01:35:04.844Z,19.67
2023-02-14T01:37:34.769Z,21.33
2023-02-14T01:40:02.452Z,21.75
2023-02-14T01:42:36.940Z,21.00
2023-02-14T01:45:19.579Z,20.80
2023-02-14T01:47:51.864Z,21.65
2023-02-14T01:50:30.265Z,20.38
2023-02-14T01:53:06.450Z,22.05
2023-02-14T01:55:39.885Z,20.73
2023-02-14T01:58:17.748Z,20.40
2023-02-14T02:00:59.998Z,23.20
2023-02-14T02:03:57.885Z,21.38
2023-02-14T02:06:40.335Z,20.85
2023-02-14T02:09:31.297Z,19.33
2023-02-14T02:12:04.177Z,21.63
2023-02-14T02:14:31.963Z,20.75
2023-02-14T02:17:20.635Z,20.30
2023-02-14T02:20:21.750Z,20.48
2023-02-14T02:23:21.988Z,21.33
2023-02-14T02:26:19.201Z,19.08
2023-02-14T02:28:48.601Z,20.40
2023-02-14T02:31:49.937Z,20.63
2023-02-14T02:34:44.018Z,21.20
2023-02-14T02:37:19.494Z,20.02
2023-02-14T02:40:00.087Z,20.25
2023-02-14T02:42:53.481Z,21.42
2023-02-14T02:45:32.608Z,20.60
2023-02-14T02:48:11.935Z,20.48
2023-02-14T02:51:13.245Z,21.15
2023-02-14T02:54:04.598Z,19.65
2023-02-14T02:56:48.877Z,20.20
2023-02-14T02:59:32.020Z,20.20
2023-02-14T03:02:12.838Z,19.65
2023-02-14T03:04:54.083Z,19.88
2023-02-14T03:07:37.110Z,20.38
2023-02-14T03:10:24.301Z,19.52
2023-02-14T03:13:15.951Z,21.38
2023-02-14T03:16:25.920Z,20.17
2023-02-14T03:19:40.186Z,19.85
2023-02-14T03:22:43.569Z,19.52
2023-02-14T03:25:38.294Z,20.75
2023-02-14T03:28:15.875Z,19.77
2023-02-14T03:31:06.980Z,20.42
2023-02-14T03:33:39.483Z,18.23
2023-02-14T03:36:19.498Z,20.17
2023-02-14T03:39:06.121Z,20.35
2023-02-14T03:41:42.508Z,20.20
2023-02-14T03:44:12.506Z,20.38
2023-02-14T03:47:11.652Z,18.77
2023-02-14T03:49:49.020Z,19.70
2023-02-14T03:52:24.669Z,18.85
2023-02-14T03:54:55.765Z,18.17
2023-02-14T03:57:44.692Z,19.50
2023-02-14T04:00:17.415Z,20.02
2023-02-14T04:03:07.160Z,20.15
2023-02-14T04:05:49.901Z,20.67
2023-02-14T04:08:25.989Z,19.42
2023-02-14T04:10:53.277Z,19.90
2023-02-14T04:13:25.277Z,20.17
2023-02-14T04:15:52.009Z,19.88
2023-02-14T04:18:37.247Z,20.15
2023-02-14T04:21:04.057Z,19.60
2023-02-14T04:23:35.072Z,19.75
2023-02-14T04:26:09.254Z,18.90
2023-02-14T04:28:35.954Z,20.90
2023-02-14T04:31:05.124Z,19.63
2023-02-14T04:33:32.642Z,19.53
2023-02-14T04:36:08.326Z,18.38
2023-02-14T04:38:41.041Z,19.52
2023-02-14T04:41:07.821Z,18.30
2023-02-14T04:43:40.314Z,18.90
2023-02-14T04:46:18.543Z,18.42
2023-02-14T04:48:49.731Z,18.52
2023-02-14T04:51:18.943Z,19.13
2023-02-14T04:53:47.967Z,19.17
2023-02-14T04:56:39.586Z,18.40
2023-02-14T04:59:10.410Z,18.15
2023-02-14T05:01:45.046Z,17.80
2023-02-14T05:04:11.804Z,18.55
2023-02-14T05:06:45.583Z,16.75
2023-02-14T05:09:15.007Z,17.63
2023-02-14T05:11:49.060Z,18.23
2023-02-14T05:14:26.143Z,17.65
2023-02-14T05:16:56.882Z,17.67
2023-02-14T05:19:30.189Z,19.20
2023-02-14T05:22:03.982Z,17.40
2023-02-14T05:24:34.770Z,18.17
2023-02-14T05:27:07.127Z,17.98
2023-02-14T05:29:37.284Z,20.40
2023-02-14T05:32:05.669Z,19.83
2023-02-14T05:34:34.061Z,19.30
2023-02-14T05:37:02.778Z,18.90
2023-02-14T05:39:37.382Z,18.63
2023-02-14T05:42:04.272Z,17.92
2023-02-14T05:44:31.290Z,19.23
2023-02-14T05:46:58.192Z,18.92
2023-02-14T05:49:24.760Z,18.38
2023-02-14T05:51:55.785Z,18.63
2023-02-14T05:54:24.738Z,18.92
2023-02-14T05:56:51.362Z,19.48
2023-02-14T05:59:17.945Z,17.70
2023-02-14T06:01:44.580Z,20.02
2023-02-14T06:04:11.309Z,19.08
2023-02-14T06:06:41.726Z,41.88
2023-02-14T06:09:36.756Z,21.90
2023-02-14T06:12:04.857Z,19.95
2023-02-14T06:14:42.883Z,21.30
2023-02-14T06:17:14.648Z,20.80
2023-02-14T06:19:41.792Z,20.30
2023-02-14T06:22:22.832Z,22.05
2023-02-14T06:24:52.617Z,20.65
2023-02-14T06:27:22.330Z,20.75
2023-02-14T06:29:49.786Z,20.10
2023-02-14T06:32:27.141Z,21.30
2023-02-14T06:34:56.254Z,20.25
2023-02-14T06:37:29.092Z,21.60
2023-02-14T06:39:56.126Z,21.52
2023-02-14T06:42:22.684Z,20.42
2023-02-14T06:44:51.899Z,21.52
2023-02-14T06:47:18.614Z,22.08
2023-02-14T06:49:52.697Z,23.42
2023-02-14T06:52:22.089Z,22.17
2023-02-14T06:54:49.801Z,24.25
2023-02-14T07:00:18.303Z,23.15
2023-02-14T07:02:45.130Z,23.17
2023-02-14T07:05:20.096Z,24.95
2023-02-14T07:07:54.517Z,25.33
2023-02-14T07:10:21.145Z,23.92
2023-02-14T07:12:54.243Z,24.45
2023-02-14T07:15:32.909Z,23.48
2023-02-14T07:17:59.700Z,23.58
2023-02-14T07:20:29.571Z,23.08
2023-02-14T07:23:08.100Z,24.80
2023-02-14T07:25:41.266Z,24.25
2023-02-14T07:28:07.945Z,23.73
2023-02-14T07:30:34.662Z,25.63
2023-02-14T07:33:01.386Z,22.00
2023-02-14T07:35:30.155Z,22.15
2023-02-14T07:37:56.715Z,22.27
2023-02-14T07:40:26.809Z,22.48
2023-02-14T07:42:55.153Z,23.60
2023-02-14T07:45:22.504Z,21.48
2023-02-14T07:47:51.246Z,23.92
2023-02-14T07:53:10.959Z,23.23
2023-02-14T07:55:43.657Z,24.10
2023-02-14T07:58:10.357Z,23.80
2023-02-14T08:00:40.087Z,23.20
2023-02-14T08:03:08.900Z,25.05
2023-02-14T08:05:42.161Z,25.75
2023-02-14T08:08:09.204Z,25.42
2023-02-14T08:10:37.902Z,22.40
2023-02-14T08:13:06.128Z,23.75
2023-02-14T08:18:44.153Z,25.00
2023-02-14T08:21:15.912Z,23.13
2023-02-14T08:23:47.578Z,25.40
2023-02-14T08:26:14.824Z,26.55
2023-02-14T08:28:42.774Z,27.30
2023-02-14T08:31:19.026Z,28.17
2023-02-14T08:33:53.282Z,26.80
2023-02-14T08:36:22.625Z,28.80
2023-02-14T08:38:52.511Z,28.17
2023-02-14T08:41:25.192Z,27.77
2023-02-14T08:43:52.256Z,25.92
2023-02-14T08:46:24.899Z,24.92
2023-02-14T08:49:02.938Z,26.95
2023-02-14T08:51:39.387Z,27.88
2023-02-14T08:54:08.790Z,30.42
2023-02-14T08:56:43.291Z,28.73
2023-02-14T08:59:10.842Z,33.38
2023-02-14T09:01:37.652Z,32.17
2023-02-14T09:04:07.416Z,33.75
2023-02-14T09:06:41.266Z,33.35
2023-02-14T09:09:10.712Z,35.47
2023-02-14T09:11:46.597Z,34.15
2023-02-14T09:14:27.106Z,33.53
2023-02-14T09:16:53.931Z,32.80
2023-02-14T09:19:28.956Z,33.63
2023-02-14T09:21:59.934Z,33.40
2023-02-14T09:24:36.315Z,34.95
2023-02-14T09:27:04.363Z,36.55
2023-02-14T09:29:34.112Z,35.35
2023-02-14T09:32:16.158Z,35.83
2023-02-14T09:35:11.243Z,35.88
2023-02-14T09:37:56.441Z,37.88
2023-02-14T09:40:26.254Z,37.88
2023-02-14T09:43:09.929Z,37.88
2023-02-14T09:45:38.234Z,41.65
2023-02-14T09:48:43.913Z,44.40
2023-02-14T09:51:18.491Z,45.03
2023-02-14T09:54:12.551Z,45.83
2023-02-14T09:57:11.684Z,47.70
2023-02-14T09:59:51.944Z,48.40
2023-02-14T10:02:52.068Z,47.67
2023-02-14T10:05:49.853Z,49.80
2023-02-14T10:08:56.117Z,50.67
2023-02-14T10:11:27.033Z,53.33
2023-02-14T10:13:59.704Z,48.00
2023-02-14T10:16:37.064Z,54.28
2023-02-14T10:19:40.707Z,53.90
2023-02-14T10:22:23.851Z,52.42
2023-02-14T10:25:01.985Z,47.10
2023-02-14T10:27:48.932Z,51.03
2023-02-14T10:30:21.306Z,49.13
2023-02-14T10:32:59.082Z,47.72
2023-02-14T10:35:46.503Z,48.92
2023-02-14T10:38:25.175Z,51.03
2023-02-14T10:41:16.431Z,53.63
2023-02-14T10:44:18.364Z,53.58
2023-02-14T10:47:33.529Z,52.80
2023-02-14T10:50:20.459Z,54.50
2023-02-14T10:53:08.664Z,53.58
2023-02-14T10:56:00.587Z,53.50
2023-02-14T10:58:31.744Z,55.15
2023-02-14T11:01:07.846Z,56.17
2023-02-14T11:04:06.902Z,54.38
2023-02-14T11:06:39.830Z,52.45
2023-02-14T11:09:12.345Z,56.70
2023-02-14T11:11:55.600Z,57.22
2023-02-14T11:14:43.428Z,53.33
2023-02-14T11:17:31.847Z,57.92
2023-02-14T11:20:12.994Z,48.15
2023-02-14T11:22:39.829Z,59.90
2023-02-14T11:25:34.556Z,54.10
2023-02-14T11:28:08.773Z,59.65
2023-02-14T11:30:41.417Z,54.75
2023-02-14T11:33:23.634Z,64.72
2023-02-14T11:38:38.922Z,62.28
2023-02-14T11:41:15.973Z,56.58
2023-02-14T11:43:49.374Z,59.15
2023-02-14T11:46:22.993Z,57.65
2023-02-14T11:49:26.727Z,54.85
2023-02-14T11:51:53.455Z,62.08
2023-02-14T11:54:38.100Z,68.05
2023-02-14T11:57:14.924Z,52.95
2023-02-14T11:59:46.436Z,57.20
2023-02-14T12:02:28.027Z,47.53
2023-02-14T12:05:07.259Z,64.07
2023-02-14T12:07:37.991Z,61.50
2023-02-14T12:10:18.181Z,54.17
2023-02-14T12:13:14.718Z,54.10
2023-02-14T12:15:54.581Z,59.15
2023-02-14T12:18:47.327Z,58.45
2023-02-14T12:21:30.820Z,59.90
2023-02-14T12:24:20.406Z,62.45
2023-02-14T12:26:57.999Z,54.35
2023-02-14T12:29:46.696Z,60.35
2023-02-14T12:32:39.890Z,56.05
2023-02-14T12:35:22.192Z,61.25
2023-02-14T12:38:41.901Z,50.95
2023-02-14T12:41:39.879Z,51.78
2023-02-14T12:44:26.565Z,52.85
2023-02-14T12:47:10.269Z,51.97
2023-02-14T12:50:02.400Z,59.20
2023-02-14T12:52:41.287Z,62.08
2023-02-14T12:55:19.109Z,53.53
2023-02-14T12:58:31.420Z,60.92
2023-02-14T13:01:07.035Z,60.88
2023-02-14T13:04:25.688Z,56.60
2023-02-14T13:07:29.237Z,62.70
2023-02-14T13:13:56.973Z,57.40
2023-02-14T13:16:56.165Z,58.65
2023-02-14T13:20:01.970Z,57.80
2023-02-14T13:22:45.826Z,57.42
2023-02-14T13:25:37.237Z,56.03
2023-02-14T13:28:16.979Z,52.22
2023-02-14T13:30:46.557Z,52.47
2023-02-14T13:33:43.009Z,59.47
2023-02-14T13:36:20.210Z,56.13
2023-02-14T13:38:57.607Z,54.85
2023-02-14T13:41:26.335Z,59.13
2023-02-14T13:44:02.629Z,53.10
2023-02-14T13:46:51.661Z,53.13
2023-02-14T13:49:39.573Z,51.05
2023-02-14T13:52:38.636Z,59.67
2023-02-14T13:55:10.136Z,52.08
2023-02-14T13:57:47.743Z,53.50
2023-02-14T14:00:17.785Z,59.45
2023-02-14T14:02:58.488Z,62.42
2023-02-14T14:05:32.695Z,62.92
2023-02-14T14:08:20.471Z,57.00
2023-02-14T14:11:07.819Z,61.10
2023-02-14T14:14:10.017Z,52.05
2023-02-14T14:16:40.609Z,51.25
2023-02-14T14:19:26.856Z,53.25
2023-02-14T14:22:01.665Z,57.35
2023-02-14T14:24:33.791Z,51.47
2023-02-14T14:27:23.276Z,60.45
2023-02-14T14:30:09.413Z,58.78
2023-02-14T14:32:45.947Z,60.33
2023-02-14T14:35:18.295Z,61.38
2023-02-14T14:37:57.184Z,51.70
2023-02-14T14:40:51.072Z,51.08
2023-02-14T14:43:34.077Z,61.03
2023-02-14T14:46:06.103Z,64.95
2023-02-14T14:48:38.357Z,51.95
2023-02-14T14:51:18.115Z,49.28
2023-02-14T14:54:16.071Z,46.25
2023-02-14T14:57:03.904Z,48.70
2023-02-14T14:59:40.639Z,65.07
2023-02-14T15:02:27.226Z,52.53
2023-02-14T15:04:54.094Z,53.35
2023-02-14T15:07:32.907Z,51.28
2023-02-14T15:10:02.679Z,56.97
2023-02-14T15:12:59.023Z,52.58
2023-02-14T15:15:31.961Z,63.90
2023-02-14T15:17:59.445Z,59.97
2023-02-14T15:20:29.272Z,65.97
2023-02-14T15:22:55.863Z,54.45
2023-02-14T15:25:24.718Z,57.72
2023-02-14T15:27:51.848Z,66.32
2023-02-14T15:30:26.105Z,53.30
2023-02-14T15:33:06.330Z,60.00
2023-02-14T15:35:37.672Z,59.55
2023-02-14T15:38:07.037Z,52.17
2023-02-14T15:40:35.671Z,53.42
2023-02-14T15:43:25.242Z,48.53
2023-02-14T15:46:04.878Z,48.80
2023-02-14T15:48:35.206Z,50.03
2023-02-14T15:51:08.239Z,49.38
2023-02-14T15:53:44.638Z,47.20
2023-02-14T15:56:39.122Z,64.10
2023-02-14T15:59:37.377Z,57.58
2023-02-14T16:02:21.159Z,60.90
2023-02-14T16:05:02.327Z,49.80
2023-02-14T16:07:30.044Z,60.33
2023-02-14T16:10:33.782Z,49.90
2023-02-14T16:13:07.300Z,65.18
2023-02-14T16:15:45.410Z,59.28
2023-02-14T16:18:45.620Z,60.78
2023-02-14T16:21:36.530Z,66.60
2023-02-14T16:24:13.055Z,56.42
2023-02-14T16:26:50.495Z,67.95
2023-02-14T16:29:22.758Z,68.55
2023-02-14T16:34:38.482Z,68.20
2023-02-14T16:37:22.583Z,67.70
2023-02-14T16:39:56.027Z,64.30
2023-02-14T16:42:24.045Z,67.22
2023-02-14T16:44:51.204Z,69.93
2023-02-14T16:47:20.017Z,68.07
2023-02-14T16:49:50.772Z,65.10
2023-02-14T16:52:26.054Z,68.80
2023-02-14T16:54:53.640Z,66.85
2023-02-14T16:57:29.019Z,67.50
2023-02-14T17:00:00.205Z,69.47
2023-02-14T17:02:28.496Z,68.80
2023-02-14T17:04:59.051Z,69.35
2023-02-14T17:07:33.329Z,58.47
2023-02-14T17:10:09.991Z,64.45
2023-02-14T17:12:42.722Z,69.53
2023-02-14T17:15:14.767Z,61.30
2023-02-14T17:20:14.013Z,71.00
2023-02-14T17:22:47.610Z,65.35
2023-02-14T17:25:14.429Z,70.70
2023-02-14T17:27:44.092Z,68.82
2023-02-14T17:30:15.065Z,69.35
2023-02-14T17:32:45.631Z,67.32
2023-02-14T17:35:14.564Z,68.67
2023-02-14T17:37:42.925Z,70.60
2023-02-14T17:40:13.692Z,62.75
2023-02-14T17:42:41.203Z,66.47
2023-02-14T17:45:11.709Z,65.38
2023-02-14T17:47:41.603Z,62.22
2023-02-14T17:50:08.558Z,63.55
2023-02-14T17:52:41.978Z,64.65
2023-02-14T17:55:26.253Z,63.20
2023-02-14T17:57:53.437Z,64.20
2023-02-14T18:00:28.869Z,65.43
2023-02-14T18:05:41.001Z,63.88
2023-02-14T18:08:15.426Z,62.00
2023-02-14T18:10:41.932Z,65.10
2023-02-14T18:13:08.795Z,66.95
2023-02-14T18:15:36.732Z,65.00
2023-02-14T18:18:03.575Z,66.68
2023-02-14T18:20:30.216Z,65.60
2023-02-14T18:23:07.248Z,67.43
2023-02-14T18:25:34.562Z,64.57
2023-02-14T18:28:11.403Z,64.88
2023-02-14T18:30:43.140Z,65.43
2023-02-14T18:33:09.719Z,64.05
2023-02-14T18:35:36.406Z,65.47
2023-02-14T18:38:07.779Z,63.58
2023-02-14T18:40:34.871Z,65.93
2023-02-14T18:43:07.931Z,64.05
2023-02-14T18:45:38.800Z,66.82
2023-02-14T18:48:06.498Z,64.85
2023-02-14T18:50:34.099Z,65.53
2023-02-14T18:53:05.746Z,63.05
2023-02-14T18:55:32.584Z,65.30
2023-02-14T18:58:07.774Z,66.70
2023-02-14T19:00:46.184Z,69.25
2023-02-14T19:03:19.073Z,64.78
2023-02-14T19:05:49.791Z,64.28
2023-02-14T19:08:16.470Z,66.78
2023-02-14T19:10:45.818Z,65.43
2023-02-14T19:13:19.502Z,67.32
2023-02-14T19:15:47.780Z,68.95
2023-02-14T19:18:14.429Z,71.38
2023-02-14T19:20:53.373Z,66.25
2023-02-14T19:23:32.335Z,66.70
2023-02-14T19:26:08.366Z,67.80
2023-02-14T19:28:46.424Z,67.15
2023-02-14T19:31:45.689Z,69.50
2023-02-14T19:34:42.438Z,69.88
2023-02-14T19:40:20.369Z,69.95
2023-02-14T19:42:48.767Z,70.18
2023-02-14T19:45:20.541Z,72.32
2023-02-14T19:47:59.534Z,72.60
2023-02-14T19:50:32.864Z,67.65
2023-02-14T19:53:01.153Z,69.60
2023-02-14T19:55:33.889Z,74.50
2023-02-14T19:58:00.458Z,74.18
2023-02-14T20:00:27.122Z,68.68
2023-02-14T20:02:56.046Z,70.35
2023-02-14T20:05:27.267Z,71.43
2023-02-14T20:07:54.779Z,72.05
2023-02-14T20:10:31.040Z,74.85
2023-02-14T20:13:12.260Z,76.43
2023-02-14T20:15:44.120Z,74.40
2023-02-14T20:18:15.815Z,76.65
2023-02-14T20:21:03.395Z,71.43
2023-02-14T20:23:39.442Z,73.65
2023-02-14T20:26:12.464Z,70.22
2023-02-14T20:28:50.302Z,74.80
2023-02-14T20:31:21.372Z,69.80
2023-02-14T20:33:52.909Z,63.90
2023-02-14T20:36:35.825Z,72.32
2023-02-14T20:39:13.133Z,73.00
2023-02-14T20:41:41.495Z,70.78
2023-02-14T20:44:18.816Z,72.22
2023-02-14T20:47:08.267Z,72.10
2023-02-14T20:49:45.576Z,69.50
2023-02-14T20:53:24.782Z,71.13
2023-02-14T20:55:18.995Z,70.63
2023-02-14T20:58:20.691Z,72.30
2023-02-14T21:01:19.555Z,68.75
2023-02-14T21:03:56.497Z,69.80
2023-02-14T21:06:40.313Z,70.93
2023-02-14T21:09:17.830Z,69.45
2023-02-14T21:12:00.980Z,68.70
2023-02-14T21:14:37.162Z,70.78
2023-02-14T21:17:05.651Z,67.63
2023-02-14T21:19:52.205Z,70.90
2023-02-14T21:22:19.051Z,69.45
2023-02-14T21:24:48.099Z,67.22
2023-02-14T21:27:15.608Z,69.85
2023-02-14T21:29:53.783Z,66.97
2023-02-14T21:32:26.617Z,67.05
2023-02-14T21:35:01.482Z,67.30
2023-02-14T21:37:37.759Z,67.30
2023-02-14T21:40:10.917Z,67.80
2023-02-14T21:42:52.051Z,68.03
2023-02-14T21:45:56.005Z,67.95
2023-02-14T21:48:44.822Z,67.63
2023-02-14T21:51:11.970Z,70.18
2023-02-14T21:53:39.342Z,65.15
2023-02-14T21:56:22.832Z,67.90
2023-02-14T21:58:52.469Z,72.60
2023-02-14T22:01:24.729Z,64.15
2023-02-14T22:03:57.011Z,69.90
2023-02-14T22:06:35.477Z,68.32
2023-02-14T22:09:22.462Z,66.70
2023-02-14T22:11:56.479Z,66.45
2023-02-14T22:14:30.272Z,68.40
2023-02-14T22:16:57.186Z,67.75
2023-02-14T22:19:30.147Z,65.05
2023-02-14T22:22:02.610Z,66.75
2023-02-14T22:24:31.876Z,70.45
2023-02-14T22:26:58.492Z,65.75
2023-02-14T22:29:29.051Z,67.63
2023-02-14T22:31:57.315Z,64.53
2023-02-14T22:34:24.062Z,64.72
2023-02-14T22:37:08.517Z,66.30
2023-02-14T22:39:35.170Z,65.97
2023-02-14T22:42:08.227Z,64.63
2023-02-14T22:44:50.636Z,66.85
2023-02-14T22:47:20.353Z,64.75
2023-02-14T22:49:46.907Z,64.22
2023-02-14T22:52:22.360Z,65.05
2023-02-14T22:54:56.481Z,64.63
2023-02-14T22:57:26.247Z,65.00
2023-02-14T22:59:52.811Z,60.85
2023-02-14T23:02:19.765Z,63.60
2023-02-14T23:04:57.266Z,65.30
2023-02-14T23:07:28.436Z,60.42
2023-02-14T23:10:01.242Z,59.53
2023-02-14T23:12:47.817Z,60.67
2023-02-14T23:18:36.162Z,59.58
2023-02-14T23:21:30.788Z,56.15
2023-02-14T23:23:57.386Z,60.05
2023-02-14T23:26:24.080Z,58.55
2023-02-14T23:28:50.604Z,58.22
2023-02-14T23:31:23.077Z,57.22
2023-02-14T23:33:55.482Z,59.03
2023-02-14T23:36:24.250Z,56.05
2023-02-14T23:38:53.521Z,56.53
2023-02-14T23:41:38.689Z,55.10
2023-02-14T23:44:08.355Z,58.03
2023-02-14T23:46:35.024Z,59.50
2023-02-14T23:49:01.709Z,56.25
2023-02-14T23:51:29.020Z,57.33
2023-02-14T23:54:54.907Z,56.70
2023-02-14T23:56:57.563Z,57.20
2023-02-14T23:59:26.992Z,55.75
